createdAt,value
2023-02-14T00:00:29.259Z,2.99
2023-02-14T00:02:57.165Z,2.97
2023-02-14T00:05:24.092Z,2.93
2023-02-14T00:07:50.865Z,2.92
2023-02-14T00:10:18.282Z,2.91
2023-02-14T00:12:45.051Z,2.91
2023-02-14T00:15:27.187Z,2.86
2023-02-14T00:17:55.256Z,2.81
2023-02-14T00:20:22.830Z,2.77
2023-02-14T00:22:49.878Z,2.76
2023-02-14T00:25:17.394Z,2.75
2023-02-14T00:27:44.713Z,2.73
2023-02-14T00:30:12.644Z,2.71
2023-02-14T00:32:40.636Z,2.67
2023-02-14T00:35:08.849Z,2.62
2023-02-14T00:37:36.003Z,2.58
2023-02-14T00:40:02.840Z,2.58
2023-02-14T00:42:29.660Z,2.58
2023-02-14T00:44:56.432Z,2.54
2023-02-14T00:47:23.230Z,2.51
2023-02-14T00:49:50.015Z,2.49
2023-02-14T00:52:16.981Z,2.48
2023-02-14T00:54:44.201Z,2.44
2023-02-14T00:57:10.998Z,2.42
2023-02-14T00:59:37.834Z,2.40
2023-02-14T01:02:04.689Z,2.29
2023-02-14T01:04:31.492Z,2.22
2023-02-14T01:06:58.250Z,2.18
2023-02-14T01:09:25.008Z,2.16
2023-02-14T01:11:51.882Z,2.17
2023-02-14T01:14:18.705Z,2.17
2023-02-14T01:16:45.489Z,2.14
2023-02-14T01:19:12.254Z,2.13
2023-02-14T01:21:38.972Z,2.00
2023-02-14T01:24:07.167Z,2.07
2023-02-14T01:26:34.798Z,2.03
2023-02-14T01:29:01.926Z,2.00
2023-02-14T01:31:30.153Z,1.96
2023-02-14T01:33:57.325Z,1.88
2023-02-14T01:36:26.208Z,1.81
2023-02-14T01:38:57.380Z,1.71
2023-02-14T01:41:24.861Z,1.58
2023-02-14T01:43:51.569Z,1.52
2023-02-14T01:46:18.573Z,1.51
2023-02-14T01:48:45.566Z,1.50
2023-02-14T01:51:13.574Z,1.50
2023-02-14T01:53:40.310Z,1.50
2023-02-14T01:56:10.097Z,1.47
2023-02-14T01:58:39.476Z,1.47
2023-02-14T02:01:06.548Z,1.38
2023-02-14T02:03:36.233Z,1.48
2023-02-14T02:06:17.899Z,1.47
2023-02-14T02:09:10.738Z,1.40
2023-02-14T02:11:38.001Z,1.31
2023-02-14T02:14:05.102Z,1.26
2023-02-14T02:16:34.762Z,1.23
2023-02-14T02:19:11.609Z,1.19
2023-02-14T02:21:38.477Z,1.18
2023-02-14T02:24:21.521Z,1.13
2023-02-14T02:27:03.393Z,1.06
2023-02-14T02:29:48.678Z,1.00
2023-02-14T02:32:21.284Z,0.96
2023-02-14T02:35:10.122Z,0.96
2023-02-14T02:37:56.111Z,1.01
2023-02-14T02:40:29.347Z,0.94
2023-02-14T02:42:59.247Z,0.90
2023-02-14T02:45:26.097Z,0.85
2023-02-14T02:47:55.678Z,0.82
2023-02-14T02:50:41.107Z,0.78
2023-02-14T02:53:26.425Z,0.77
2023-02-14T02:56:24.506Z,0.78
2023-02-14T02:59:06.561Z,0.72
2023-02-14T03:01:37.849Z,0.61
2023-02-14T03:04:25.860Z,0.58
2023-02-14T03:06:53.202Z,0.57
2023-02-14T03:09:19.951Z,0.59
2023-02-14T03:11:53.913Z,0.58
2023-02-14T03:14:26.259Z,0.52
2023-02-14T03:17:02.066Z,0.47
2023-02-14T03:19:29.120Z,0.51
2023-02-14T03:21:55.846Z,0.53
2023-02-14T03:24:38.060Z,0.46
2023-02-14T03:27:21.736Z,0.58
2023-02-14T03:30:00.704Z,0.55
2023-02-14T03:32:31.961Z,0.54
2023-02-14T03:35:04.672Z,0.47
2023-02-14T03:37:34.221Z,0.36
2023-02-14T03:40:22.677Z,0.31
2023-02-14T03:42:54.799Z,0.32
2023-02-14T03:45:33.164Z,0.31
2023-02-14T03:48:01.899Z,0.30
2023-02-14T03:50:29.802Z,0.27
2023-02-14T03:52:58.261Z,0.28
2023-02-14T03:55:43.412Z,0.20
2023-02-14T03:58:16.889Z,0.18
2023-02-14T04:00:46.563Z,0.19
2023-02-14T04:03:15.184Z,0.19
2023-02-14T04:05:43.846Z,0.15
2023-02-14T04:08:11.205Z,0.10
2023-02-14T04:10:40.020Z,0.07
2023-02-14T04:13:06.844Z,0.08
2023-02-14T04:15:33.950Z,0.10
2023-02-14T04:18:19.320Z,0.10
2023-02-14T04:20:46.194Z,0.09
2023-02-14T04:23:12.985Z,0.09
2023-02-14T04:25:40.327Z,0.11
2023-02-14T04:28:07.110Z,0.11
2023-02-14T04:30:33.886Z,0.10
2023-02-14T04:33:00.726Z,0.06
2023-02-14T04:35:27.592Z,-0.01
2023-02-14T04:37:54.504Z,-0.06
2023-02-14T04:40:21.676Z,-0.09
2023-02-14T04:42:48.562Z,-0.08
2023-02-14T04:45:15.329Z,-0.05
2023-02-14T04:47:42.170Z,-0.04
2023-02-14T04:50:09.179Z,-0.02
2023-02-14T04:52:36.000Z,-0.02
2023-02-14T04:55:04.385Z,-0.03
2023-02-14T04:57:31.180Z,-0.01
2023-02-14T04:59:58.156Z,-0.01
2023-02-14T05:02:25.206Z,0.01
2023-02-14T05:04:51.981Z,0.02
2023-02-14T05:07:18.852Z,0.02
2023-02-14T05:09:45.643Z,0.04
2023-02-14T05:12:12.461Z,0.06
2023-02-14T05:14:39.244Z,0.08
2023-02-14T05:17:06.044Z,0.11
2023-02-14T05:19:32.783Z,0.12
2023-02-14T05:21:59.543Z,0.15
2023-02-14T05:24:26.343Z,0.17
2023-02-14T05:26:53.213Z,0.17
2023-02-14T05:29:21.031Z,0.12
2023-02-14T05:31:48.127Z,0.10
2023-02-14T05:34:15.007Z,0.08
2023-02-14T05:36:41.876Z,0.05
2023-02-14T05:39:08.752Z,0.08
2023-02-14T05:41:35.516Z,0.13
2023-02-14T05:44:02.652Z,0.18
2023-02-14T05:46:29.406Z,0.18
2023-02-14T05:48:56.293Z,0.11
2023-02-14T05:51:23.132Z,0.07
2023-02-14T05:53:49.998Z,0.03
2023-02-14T05:56:16.879Z,-0.01
2023-02-14T05:58:43.745Z,0.01
2023-02-14T06:01:10.515Z,0.01
2023-02-14T06:03:37.365Z,0.04
2023-02-14T06:06:04.164Z,0.04
2023-02-14T06:08:30.940Z,0.02
2023-02-14T06:10:58.201Z,0.04
2023-02-14T06:13:25.175Z,0.03
2023-02-14T06:15:51.938Z,0.04
2023-02-14T06:18:19.650Z,0.04
2023-02-14T06:20:46.523Z,0.04
2023-02-14T06:23:13.457Z,0.02
2023-02-14T06:25:40.340Z,-0.01
2023-02-14T06:28:07.210Z,-0.04
2023-02-14T06:30:34.323Z,-0.03
2023-02-14T06:33:01.171Z,-0.01
2023-02-14T06:35:28.208Z,0.01
2023-02-14T06:37:55.065Z,0.03
2023-02-14T06:40:22.101Z,0.04
2023-02-14T06:42:49.808Z,0.06
2023-02-14T06:45:16.613Z,0.06
2023-02-14T06:47:43.694Z,0.09
2023-02-14T06:50:11.786Z,0.13
2023-02-14T06:52:39.018Z,0.14
2023-02-14T06:55:06.020Z,0.17
2023-02-14T06:57:32.837Z,0.15
2023-02-14T06:59:59.622Z,0.14
2023-02-14T07:02:26.429Z,0.14
2023-02-14T07:04:53.319Z,0.15
2023-02-14T07:07:20.084Z,0.18
2023-02-14T07:09:46.812Z,0.19
2023-02-14T07:12:13.625Z,0.18
2023-02-14T07:14:40.407Z,0.16
2023-02-14T07:17:07.140Z,0.16
2023-02-14T07:19:34.001Z,0.18
2023-02-14T07:22:00.854Z,0.24
2023-02-14T07:24:28.301Z,0.27
2023-02-14T07:26:55.146Z,0.32
2023-02-14T07:29:21.960Z,0.39
2023-02-14T07:31:49.964Z,0.44
2023-02-14T07:34:16.824Z,0.47
2023-02-14T07:36:44.170Z,0.56
2023-02-14T07:39:11.281Z,0.61
2023-02-14T07:41:38.113Z,0.67
2023-02-14T07:44:04.994Z,0.73
2023-02-14T07:46:31.820Z,0.79
2023-02-14T07:48:59.229Z,0.83
2023-02-14T07:51:26.028Z,0.89
2023-02-14T07:53:52.791Z,0.96
2023-02-14T07:56:19.946Z,1.02
2023-02-14T07:58:46.757Z,1.08
2023-02-14T08:01:13.687Z,1.15
2023-02-14T08:03:40.613Z,1.23
2023-02-14T08:06:07.516Z,1.29
2023-02-14T08:08:34.308Z,1.38
2023-02-14T08:11:01.698Z,1.50
2023-02-14T08:13:29.245Z,1.56
2023-02-14T08:16:04.903Z,1.62
2023-02-14T08:18:32.979Z,1.76
2023-02-14T08:20:59.997Z,1.83
2023-02-14T08:23:27.427Z,1.85
2023-02-14T08:25:54.318Z,1.90
2023-02-14T08:28:24.331Z,1.93
2023-02-14T08:30:51.172Z,2.00
2023-02-14T08:33:18.518Z,2.07
2023-02-14T08:35:45.290Z,2.10
2023-02-14T08:38:12.078Z,2.17
2023-02-14T08:40:39.216Z,2.29
2023-02-14T08:43:06.436Z,2.37
2023-02-14T08:45:33.246Z,2.41
2023-02-14T08:48:00.868Z,2.53
2023-02-14T08:50:27.926Z,2.60
2023-02-14T08:52:54.938Z,2.68
2023-02-14T08:55:21.778Z,2.76
2023-02-14T08:57:49.818Z,2.83
2023-02-14T09:00:16.756Z,2.90
2023-02-14T09:02:43.591Z,2.97
2023-02-14T09:05:10.738Z,3.04
2023-02-14T09:07:37.704Z,3.09
2023-02-14T09:10:04.841Z,3.16
2023-02-14T09:12:31.616Z,3.24
2023-02-14T09:14:59.567Z,3.27
2023-02-14T09:17:26.520Z,3.32
2023-02-14T09:19:53.278Z,3.36
2023-02-14T09:22:20.938Z,3.42
2023-02-14T09:24:48.093Z,3.48
2023-02-14T09:27:14.916Z,3.62
2023-02-14T09:29:41.847Z,3.74
2023-02-14T09:32:08.743Z,3.81
2023-02-14T09:34:35.808Z,3.87
2023-02-14T09:37:21.143Z,3.97
2023-02-14T09:39:48.111Z,4.06
2023-02-14T09:42:15.078Z,4.17
2023-02-14T09:44:48.392Z,4.28
2023-02-14T09:47:27.436Z,4.41
2023-02-14T09:49:54.694Z,4.54
2023-02-14T09:52:25.880Z,4.65
2023-02-14T09:54:57.415Z,4.71
2023-02-14T09:57:31.726Z,4.77
2023-02-14T10:00:12.213Z,4.83
2023-02-14T10:02:44.821Z,4.91
2023-02-14T10:05:29.277Z,4.98
2023-02-14T10:07:58.258Z,5.07
2023-02-14T10:10:25.325Z,5.19
2023-02-14T10:12:59.864Z,5.29
2023-02-14T10:15:29.261Z,5.32
2023-02-14T10:18:19.131Z,5.39
2023-02-14T10:20:47.564Z,5.52
2023-02-14T10:23:32.981Z,5.67
2023-02-14T10:26:04.677Z,5.80
2023-02-14T10:28:33.935Z,5.92
2023-02-14T10:31:20.150Z,5.98
2023-02-14T10:33:51.929Z,6.08
2023-02-14T10:36:27.549Z,6.16
2023-02-14T10:39:11.823Z,6.24
2023-02-14T10:41:48.662Z,6.32
2023-02-14T10:44:15.447Z,6.43
2023-02-14T10:46:57.557Z,6.49
2023-02-14T10:49:27.329Z,6.55
2023-02-14T10:51:59.906Z,6.63
2023-02-14T10:54:28.409Z,6.70
2023-02-14T10:57:09.732Z,6.84
2023-02-14T10:59:45.967Z,6.91
2023-02-14T11:02:14.560Z,7.02
2023-02-14T11:04:42.670Z,7.07
2023-02-14T11:07:16.521Z,7.13
2023-02-14T11:09:43.350Z,7.23
2023-02-14T11:12:10.235Z,7.32
2023-02-14T11:14:38.410Z,7.35
2023-02-14T11:17:23.812Z,7.44
2023-02-14T11:20:09.496Z,7.52
2023-02-14T11:22:36.283Z,7.61
2023-02-14T11:25:07.597Z,7.67
2023-02-14T11:27:37.790Z,7.79
2023-02-14T11:30:13.278Z,7.85
2023-02-14T11:32:41.109Z,7.91
2023-02-14T11:35:16.810Z,7.91
2023-02-14T11:37:48.953Z,8.02
2023-02-14T11:40:30.165Z,8.05
2023-02-14T11:43:13.496Z,8.15
2023-02-14T11:45:42.970Z,8.19
2023-02-14T11:48:37.135Z,8.24
2023-02-14T11:51:09.870Z,8.31
2023-02-14T11:53:45.842Z,8.37
2023-02-14T11:56:13.199Z,8.46
2023-02-14T11:58:49.994Z,8.47
2023-02-14T12:01:28.318Z,8.51
2023-02-14T12:03:58.419Z,8.60
2023-02-14T12:06:30.160Z,8.64
2023-02-14T12:09:15.533Z,8.67
2023-02-14T12:11:53.875Z,8.70
2023-02-14T12:14:21.865Z,8.71
2023-02-14T12:17:04.578Z,8.77
2023-02-14T12:19:40.798Z,8.85
2023-02-14T12:22:10.943Z,8.90
2023-02-14T12:24:37.720Z,8.95
2023-02-14T12:27:10.532Z,9.02
2023-02-14T12:29:41.462Z,9.06
2023-02-14T12:32:22.516Z,9.10
2023-02-14T12:34:49.915Z,9.12
2023-02-14T12:37:19.922Z,9.17
2023-02-14T12:40:05.353Z,9.15
2023-02-14T12:42:47.145Z,9.26
2023-02-14T12:45:32.445Z,9.26
2023-02-14T12:48:05.275Z,9.38
2023-02-14T12:50:47.117Z,9.43
2023-02-14T12:53:22.739Z,9.47
2023-02-14T12:55:55.941Z,9.53
2023-02-14T12:58:29.770Z,9.57
2023-02-14T13:00:59.777Z,9.64
2023-02-14T13:03:45.329Z,9.69
2023-02-14T13:06:27.204Z,9.74
2023-02-14T13:09:09.345Z,9.71
2023-02-14T13:11:45.298Z,9.71
2023-02-14T13:14:32.158Z,9.65
2023-02-14T13:16:59.479Z,9.81
2023-02-14T13:19:36.304Z,9.96
2023-02-14T13:22:04.751Z,10.07
2023-02-14T13:24:38.319Z,10.17
2023-02-14T13:27:07.217Z,10.18
2023-02-14T13:29:42.946Z,10.27
2023-02-14T13:32:12.542Z,10.29
2023-02-14T13:34:43.396Z,10.26
2023-02-14T13:37:12.626Z,10.25
2023-02-14T13:39:44.114Z,10.23
2023-02-14T13:42:11.333Z,10.21
2023-02-14T13:44:44.013Z,10.20
2023-02-14T13:47:18.109Z,10.37
2023-02-14T13:49:50.223Z,10.39
2023-02-14T13:52:38.778Z,10.39
2023-02-14T13:55:14.573Z,10.43
2023-02-14T13:57:41.707Z,10.40
2023-02-14T14:00:17.411Z,10.41
2023-02-14T14:02:47.206Z,10.38
2023-02-14T14:05:40.409Z,10.33
2023-02-14T14:08:16.346Z,10.34
2023-02-14T14:10:53.507Z,10.38
2023-02-14T14:13:38.907Z,10.54
2023-02-14T14:16:24.135Z,10.62
2023-02-14T14:18:52.410Z,10.63
2023-02-14T14:21:26.460Z,10.64
2023-02-14T14:24:11.819Z,10.60
2023-02-14T14:26:46.511Z,10.57
2023-02-14T14:29:16.447Z,10.59
2023-02-14T14:31:43.372Z,10.66
2023-02-14T14:34:15.937Z,10.71
2023-02-14T14:36:42.758Z,10.80
2023-02-14T14:39:09.751Z,10.83
2023-02-14T14:41:39.152Z,10.88
2023-02-14T14:44:06.713Z,10.97
2023-02-14T14:46:33.714Z,11.12
2023-02-14T14:49:02.572Z,11.21
2023-02-14T14:51:30.897Z,11.25
2023-02-14T14:54:05.944Z,11.37
2023-02-14T14:56:35.217Z,11.45
2023-02-14T14:59:19.158Z,11.57
2023-02-14T15:01:46.542Z,11.71
2023-02-14T15:04:24.813Z,11.86
2023-02-14T15:06:51.693Z,11.98
2023-02-14T15:09:24.298Z,12.02
2023-02-14T15:12:10.621Z,12.35
2023-02-14T15:14:39.970Z,13.15
2023-02-14T15:17:12.817Z,13.85
2023-02-14T15:19:44.217Z,14.29
2023-02-14T15:22:19.972Z,14.46
2023-02-14T15:24:47.398Z,14.21
2023-02-14T15:27:18.181Z,14.09
2023-02-14T15:29:58.711Z,13.72
2023-02-14T15:32:27.634Z,13.32
2023-02-14T15:34:55.359Z,13.19
2023-02-14T15:37:22.932Z,13.13
2023-02-14T15:39:52.334Z,13.10
2023-02-14T15:42:22.908Z,12.94
2023-02-14T15:44:50.438Z,12.70
2023-02-14T15:47:17.466Z,12.30
2023-02-14T15:49:46.444Z,11.99
2023-02-14T15:52:14.927Z,11.69
2023-02-14T15:54:43.596Z,11.37
2023-02-14T15:57:21.597Z,11.20
2023-02-14T15:59:48.984Z,10.93
2023-02-14T16:02:17.173Z,10.79
2023-02-14T16:04:44.385Z,10.59
2023-02-14T16:07:29.940Z,10.45
2023-02-14T16:10:15.398Z,10.33
2023-02-14T16:12:42.352Z,10.19
2023-02-14T16:15:15.003Z,10.09
2023-02-14T16:17:43.874Z,10.02
2023-02-14T16:20:29.070Z,9.92
2023-02-14T16:23:14.726Z,9.86
2023-02-14T16:25:41.727Z,9.77
2023-02-14T16:28:08.746Z,9.69
2023-02-14T16:30:36.891Z,9.62
2023-02-14T16:33:04.065Z,9.56
2023-02-14T16:35:31.201Z,9.47
2023-02-14T16:37:58.385Z,9.40
2023-02-14T16:40:26.676Z,9.30
2023-02-14T16:42:54.742Z,9.23
2023-02-14T16:45:21.524Z,9.17
2023-02-14T16:47:49.008Z,9.13
2023-02-14T16:50:16.122Z,9.00
2023-02-14T16:52:51.366Z,8.92
2023-02-14T16:55:20.010Z,8.80
2023-02-14T16:57:49.970Z,8.71
2023-02-14T17:00:16.989Z,8.62
2023-02-14T17:02:44.327Z,8.44
2023-02-14T17:05:11.553Z,8.44
2023-02-14T17:07:40.654Z,8.34
2023-02-14T17:10:10.010Z,8.26
2023-02-14T17:12:39.957Z,8.16
2023-02-14T17:15:10.842Z,8.04
2023-02-14T17:17:37.669Z,7.96
2023-02-14T17:20:05.769Z,7.85
2023-02-14T17:22:34.166Z,7.78
2023-02-14T17:25:00.978Z,7.69
2023-02-14T17:27:27.997Z,7.63
2023-02-14T17:29:55.125Z,7.54
2023-02-14T17:32:22.015Z,7.47
2023-02-14T17:34:49.379Z,7.39
2023-02-14T17:37:19.105Z,7.32
2023-02-14T17:39:45.862Z,7.23
2023-02-14T17:42:12.692Z,7.12
2023-02-14T17:44:39.581Z,7.05
2023-02-14T17:47:06.447Z,7.02
2023-02-14T17:49:33.267Z,6.97
2023-02-14T17:52:00.024Z,6.93
2023-02-14T17:54:26.817Z,6.88
2023-02-14T17:56:53.679Z,6.84
2023-02-14T17:59:20.918Z,6.79
2023-02-14T18:01:48.112Z,6.74
2023-02-14T18:04:14.938Z,6.68
2023-02-14T18:06:42.858Z,6.58
2023-02-14T18:09:10.078Z,6.53
2023-02-14T18:11:38.530Z,6.49
2023-02-14T18:14:05.280Z,6.47
2023-02-14T18:16:32.123Z,6.42
2023-02-14T18:19:01.603Z,6.36
2023-02-14T18:21:34.415Z,6.31
2023-02-14T18:24:04.075Z,6.23
2023-02-14T18:26:30.942Z,6.23
2023-02-14T18:28:57.902Z,6.18
2023-02-14T18:31:26.290Z,6.13
2023-02-14T18:33:53.121Z,6.08
2023-02-14T18:36:21.207Z,6.06
2023-02-14T18:38:48.579Z,6.04
2023-02-14T18:41:16.648Z,6.01
2023-02-14T18:43:44.453Z,5.98
2023-02-14T18:46:15.334Z,5.94
2023-02-14T18:48:42.357Z,5.91
2023-02-14T18:51:13.462Z,5.79
2023-02-14T18:53:40.505Z,5.82
2023-02-14T18:56:09.440Z,5.75
2023-02-14T18:58:37.621Z,5.71
2023-02-14T19:01:08.574Z,5.69
2023-02-14T19:03:35.507Z,5.66
2023-02-14T19:06:02.610Z,5.63
2023-02-14T19:08:32.986Z,5.59
2023-02-14T19:11:00.336Z,5.56
2023-02-14T19:13:29.359Z,5.47
2023-02-14T19:15:56.434Z,5.39
2023-02-14T19:18:25.566Z,5.37
2023-02-14T19:20:52.996Z,5.36
2023-02-14T19:23:19.931Z,5.34
2023-02-14T19:25:46.724Z,5.27
2023-02-14T19:28:13.558Z,5.23
2023-02-14T19:30:40.424Z,5.19
2023-02-14T19:33:07.235Z,5.12
2023-02-14T19:35:34.108Z,5.12
2023-02-14T19:38:03.539Z,5.06
2023-02-14T19:40:30.885Z,5.03
2023-02-14T19:42:58.205Z,4.99
2023-02-14T19:45:27.267Z,4.96
2023-02-14T19:47:54.149Z,4.89
2023-02-14T19:50:22.108Z,4.86
2023-02-14T19:52:49.198Z,4.78
2023-02-14T19:55:20.061Z,4.72
2023-02-14T19:57:48.160Z,4.63
2023-02-14T20:00:16.148Z,4.57
2023-02-14T20:02:48.236Z,4.56
2023-02-14T20:05:15.696Z,4.57
2023-02-14T20:07:43.373Z,4.57
2023-02-14T20:10:10.904Z,4.53
2023-02-14T20:12:37.964Z,4.49
2023-02-14T20:15:05.474Z,4.43
2023-02-14T20:17:32.828Z,4.40
2023-02-14T20:19:59.708Z,4.39
2023-02-14T20:22:26.811Z,4.41
2023-02-14T20:24:53.590Z,4.38
2023-02-14T20:27:21.093Z,4.34
2023-02-14T20:29:48.156Z,4.30
2023-02-14T20:32:15.646Z,4.26
2023-02-14T20:34:42.949Z,4.18
2023-02-14T20:37:11.041Z,4.10
2023-02-14T20:39:38.319Z,3.99
2023-02-14T20:42:05.706Z,4.06
2023-02-14T20:44:32.602Z,4.08
2023-02-14T20:46:59.465Z,4.04
2023-02-14T20:49:27.550Z,4.01
2023-02-14T20:51:54.940Z,3.96
2023-02-14T20:54:23.325Z,3.94
2023-02-14T20:56:50.992Z,3.89
2023-02-14T20:59:19.351Z,3.83
2023-02-14T21:01:46.689Z,3.79
2023-02-14T21:04:14.030Z,3.79
2023-02-14T21:06:41.265Z,3.80
2023-02-14T21:09:08.563Z,3.67
2023-02-14T21:11:35.425Z,3.74
2023-02-14T21:14:02.652Z,3.75
2023-02-14T21:16:30.230Z,3.75
2023-02-14T21:19:01.311Z,3.71
2023-02-14T21:21:32.303Z,3.66
2023-02-14T21:24:00.688Z,3.59
2023-02-14T21:26:27.956Z,3.57
2023-02-14T21:28:54.824Z,3.53
2023-02-14T21:31:21.898Z,3.49
2023-02-14T21:33:50.096Z,3.48
2023-02-14T21:36:18.231Z,3.43
2023-02-14T21:38:45.000Z,3.41
2023-02-14T21:41:13.966Z,3.39
2023-02-14T21:43:41.708Z,3.40
2023-02-14T21:46:11.628Z,3.41
2023-02-14T21:48:58.916Z,3.39
2023-02-14T21:51:27.539Z,3.36
2023-02-14T21:53:55.241Z,3.28
2023-02-14T21:56:22.469Z,3.27
2023-02-14T21:58:51.120Z,3.19
2023-02-14T22:01:18.267Z,3.11
2023-02-14T22:03:45.140Z,3.09
2023-02-14T22:06:13.211Z,3.07
2023-02-14T22:08:40.637Z,3.03
2023-02-14T22:11:08.478Z,3.04
2023-02-14T22:13:35.750Z,3.07
2023-02-14T22:16:03.672Z,3.05
2023-02-14T22:18:31.123Z,3.05
2023-02-14T22:21:01.759Z,3.04
2023-02-14T22:23:30.518Z,3.01
2023-02-14T22:26:06.552Z,2.94
2023-02-14T22:28:33.346Z,2.90
2023-02-14T22:31:00.552Z,2.90
2023-02-14T22:33:28.023Z,2.92
2023-02-14T22:35:55.735Z,2.85
2023-02-14T22:38:22.858Z,2.81
2023-02-14T22:40:50.026Z,2.78
2023-02-14T22:43:16.938Z,2.71
2023-02-14T22:45:43.828Z,2.62
2023-02-14T22:48:10.586Z,2.58
2023-02-14T22:50:37.296Z,2.59
2023-02-14T22:53:04.223Z,2.58
2023-02-14T22:55:31.192Z,2.56
2023-02-14T22:57:58.176Z,2.54
2023-02-14T23:00:25.217Z,2.54
2023-02-14T23:02:52.023Z,2.46
2023-02-14T23:05:19.648Z,2.47
2023-02-14T23:07:46.942Z,2.41
2023-02-14T23:10:13.786Z,2.37
2023-02-14T23:12:59.133Z,2.32
2023-02-14T23:15:44.291Z,2.29
2023-02-14T23:18:30.940Z,2.27
2023-02-14T23:21:16.034Z,2.22
2023-02-14T23:23:42.796Z,2.16
2023-02-14T23:26:09.625Z,2.11
2023-02-14T23:28:36.496Z,2.08
2023-02-14T23:31:03.803Z,2.02
2023-02-14T23:33:30.528Z,2.01
2023-02-14T23:35:57.333Z,2.02
2023-02-14T23:38:24.400Z,2.01
2023-02-14T23:41:09.847Z,1.98
2023-02-14T23:43:36.689Z,1.94
2023-02-14T23:46:04.063Z,1.90
2023-02-14T23:48:30.949Z,1.86
2023-02-14T23:51:01.037Z,1.88
2023-02-14T23:53:28.130Z,1.92
2023-02-14T23:56:00.077Z,1.94
2023-02-14T23:58:27.036Z,1.86
